Llandudno Junction, United Kingdom
Current Conditions -  °F | °C
As of 12:50 AM on Tuesday 21 Oct 2014 (Local Time) from EGOV Reporting Station
Moderate Rain Moderate Rain  
Wind Chill: 55°   Ceiling: 1500
Heat Index: 55°   Visibility: 1.8mi
Dew Point: 55°   Wind: 40mph
Humidity: 100%   Direction: 200°SSW
Pressure: 29.53"   Gusts: 52mph
Location:  53.28°N, 3.8°W
Report Text: EGOV 202350Z 20035G45KT 3000 RA SCT010 BKN015 13/13 Q1000 YLO1
Loading
Personal Weather Stations






























Interactive Weather Map
Tropical Storm Tracking
New forecast layout! Learn more

10-Day Weather Forecast

Advertisements
Track Severe Weather on mobile